FHA3PC EDDN-EDDS
Flight info
| Callsign | FHA3PC |
|---|---|
| Flight time | 0h 22m |
| Altitude | 16000 |
| Route | BOLSI1G BOLSI Y166 DKB Z818 GEBNO/N0345F150 T726 LBU DCT |
| Aircraft | A339/H-SADE1E2E3GHIJ3J5M1P2RWXY/LB2D1 |
Departure
| Time | 2026-05-07 15:49 |
|---|---|
| Airport | Nuremberg Airport (EDDN) |
Arrival
| Time | 2026-05-07 16:12 |
|---|---|
| Airport | Stuttgart Airport (EDDS) |
| Time | Latitude | Longitude | Altitude | Speed | Heading |
|---|---|---|---|---|---|
| 2026-05-07 15:18 | 49.49520 | 11.07792 | 1040 ft | 0 kts | 188° |
| 2026-05-07 15:42 | 49.49527 | 11.07793 | 1040 ft | 1 kts | 188° |
| 2026-05-07 15:42 | 49.49541 | 11.07797 | 1041 ft | 4 kts | 183° |
| 2026-05-07 15:42 | 49.49567 | 11.07794 | 1043 ft | 4 kts | 150° |
| 2026-05-07 15:42 | 49.49586 | 11.07772 | 1046 ft | 4 kts | 114° |
| 2026-05-07 15:43 | 49.49589 | 11.07765 | 1046 ft | 0 kts | 107° |
| 2026-05-07 15:43 | 49.49582 | 11.07813 | 1045 ft | 9 kts | 100° |
| 2026-05-07 15:44 | 49.49571 | 11.07923 | 1044 ft | 12 kts | 98° |
| 2026-05-07 15:44 | 49.49558 | 11.08070 | 1044 ft | 16 kts | 97° |
| 2026-05-07 15:44 | 49.49545 | 11.08250 | 1045 ft | 18 kts | 97° |
| 2026-05-07 15:44 | 49.49589 | 11.08371 | 1048 ft | 13 kts | 49° |
| 2026-05-07 15:45 | 49.49608 | 11.08474 | 1050 ft | 0 kts | 92° |
| 2026-05-07 15:47 | 49.49605 | 11.08546 | 1051 ft | 17 kts | 96° |
| 2026-05-07 15:47 | 49.49577 | 11.08846 | 1054 ft | 34 kts | 98° |
| 2026-05-07 15:47 | 49.49551 | 11.09120 | 1055 ft | 24 kts | 98° |
| 2026-05-07 15:47 | 49.49540 | 11.09351 | 1060 ft | 19 kts | 81° |
| 2026-05-07 15:48 | 49.49601 | 11.09494 | 1062 ft | 14 kts | 54° |
| 2026-05-07 15:48 | 49.49667 | 11.09560 | 1065 ft | 9 kts | 359° |
| 2026-05-07 15:48 | 49.49698 | 11.09508 | 1064 ft | 5 kts | 295° |
| 2026-05-07 15:48 | 49.49734 | 11.09201 | 1062 ft | 71 kts | 278° |
| 2026-05-07 15:49 | 49.49847 | 11.08018 | 1052 ft | 147 kts | 278° |
| 2026-05-07 15:49 | 49.50017 | 11.06234 | 1331 ft | 181 kts | 277° |
| 2026-05-07 15:49 | 49.50196 | 11.04212 | 2036 ft | 196 kts | 278° |
| 2026-05-07 15:49 | 49.50374 | 11.02179 | 3188 ft | 190 kts | 279° |
| 2026-05-07 15:50 | 49.50576 | 11.00074 | 3851 ft | 210 kts | 279° |
| 2026-05-07 15:50 | 49.50815 | 10.97749 | 4394 ft | 230 kts | 279° |
| 2026-05-07 15:50 | 49.51075 | 10.95225 | 4876 ft | 247 kts | 279° |
| 2026-05-07 15:50 | 49.51075 | 10.92533 | 5494 ft | 256 kts | 262° |
| 2026-05-07 15:51 | 49.50506 | 10.89929 | 6322 ft | 259 kts | 245° |
| 2026-05-07 15:51 | 49.49696 | 10.87424 | 6798 ft | 263 kts | 245° |
| 2026-05-07 15:51 | 49.48888 | 10.84892 | 6954 ft | 264 kts | 246° |
| 2026-05-07 15:51 | 49.48092 | 10.82350 | 7001 ft | 264 kts | 246° |
| 2026-05-07 15:52 | 49.47300 | 10.79799 | 7136 ft | 265 kts | 245° |
| 2026-05-07 15:52 | 49.46158 | 10.77539 | 7748 ft | 273 kts | 221° |
| 2026-05-07 15:52 | 49.44455 | 10.76248 | 8614 ft | 279 kts | 197° |
| 2026-05-07 15:52 | 49.42497 | 10.76008 | 9388 ft | 286 kts | 183° |
| 2026-05-07 15:53 | 49.40488 | 10.76041 | 10137 ft | 290 kts | 182° |
| 2026-05-07 15:53 | 49.38420 | 10.76088 | 10539 ft | 307 kts | 182° |
| 2026-05-07 15:53 | 49.36207 | 10.76100 | 10747 ft | 329 kts | 182° |
| 2026-05-07 15:53 | 49.33872 | 10.76080 | 11171 ft | 340 kts | 183° |
| 2026-05-07 15:54 | 49.31496 | 10.76045 | 11854 ft | 343 kts | 183° |
| 2026-05-07 15:54 | 49.29100 | 10.76002 | 12554 ft | 346 kts | 183° |
| 2026-05-07 15:54 | 49.26701 | 10.75720 | 13197 ft | 347 kts | 195° |
| 2026-05-07 15:54 | 49.24498 | 10.74302 | 13879 ft | 345 kts | 215° |
| 2026-05-07 15:55 | 49.22753 | 10.71817 | 14474 ft | 344 kts | 234° |
| 2026-05-07 15:55 | 49.21681 | 10.68568 | 15090 ft | 344 kts | 254° |
| 2026-05-07 15:55 | 49.21112 | 10.65003 | 15680 ft | 347 kts | 258° |
| 2026-05-07 15:55 | 49.20601 | 10.61384 | 15963 ft | 349 kts | 258° |
| 2026-05-07 15:56 | 49.20071 | 10.57791 | 16054 ft | 357 kts | 258° |
| 2026-05-07 15:56 | 49.19482 | 10.54060 | 16059 ft | 362 kts | 257° |
| 2026-05-07 15:56 | 49.18863 | 10.50334 | 16003 ft | 362 kts | 256° |
| 2026-05-07 15:56 | 49.18230 | 10.46623 | 15651 ft | 361 kts | 256° |
| 2026-05-07 15:57 | 49.17592 | 10.42921 | 15208 ft | 358 kts | 256° |
| 2026-05-07 15:57 | 49.16959 | 10.39258 | 14849 ft | 356 kts | 256° |
| 2026-05-07 15:57 | 49.16324 | 10.35593 | 14507 ft | 355 kts | 256° |
| 2026-05-07 15:57 | 49.15694 | 10.31950 | 14171 ft | 354 kts | 256° |
| 2026-05-07 15:58 | 49.15066 | 10.28325 | 13828 ft | 352 kts | 256° |
| 2026-05-07 15:58 | 49.14609 | 10.24666 | 13448 ft | 350 kts | 264° |
| 2026-05-07 15:58 | 49.14521 | 10.20960 | 13075 ft | 348 kts | 272° |
| 2026-05-07 15:58 | 49.14767 | 10.17293 | 12706 ft | 346 kts | 277° |
| 2026-05-07 15:59 | 49.15078 | 10.13655 | 12292 ft | 345 kts | 277° |
| 2026-05-07 15:59 | 49.15374 | 10.10031 | 11778 ft | 343 kts | 277° |
| 2026-05-07 15:59 | 49.15658 | 10.06453 | 11151 ft | 336 kts | 277° |
| 2026-05-07 15:59 | 49.15931 | 10.02938 | 10529 ft | 331 kts | 277° |
| 2026-05-07 16:00 | 49.16199 | 9.99465 | 9928 ft | 326 kts | 277° |
| 2026-05-07 16:00 | 49.16316 | 9.96061 | 9254 ft | 318 kts | 264° |
| 2026-05-07 16:00 | 49.15677 | 9.92902 | 8738 ft | 306 kts | 243° |
| 2026-05-07 16:00 | 49.14353 | 9.90512 | 8307 ft | 289 kts | 220° |
| 2026-05-07 16:01 | 49.12667 | 9.89031 | 7987 ft | 272 kts | 209° |
| 2026-05-07 16:01 | 49.10969 | 9.87710 | 7745 ft | 275 kts | 210° |
| 2026-05-07 16:01 | 49.09295 | 9.86335 | 7490 ft | 271 kts | 212° |
| 2026-05-07 16:01 | 49.07686 | 9.84932 | 7241 ft | 270 kts | 213° |
| 2026-05-07 16:02 | 49.06052 | 9.83449 | 6990 ft | 270 kts | 213° |
| 2026-05-07 16:02 | 49.04474 | 9.81992 | 6758 ft | 268 kts | 214° |
| 2026-05-07 16:02 | 49.02880 | 9.80513 | 6504 ft | 268 kts | 214° |
| 2026-05-07 16:02 | 49.01289 | 9.79040 | 6234 ft | 267 kts | 214° |
| 2026-05-07 16:03 | 48.99701 | 9.77573 | 5980 ft | 267 kts | 213° |
| 2026-05-07 16:03 | 48.98121 | 9.76117 | 5718 ft | 265 kts | 213° |
| 2026-05-07 16:03 | 48.96539 | 9.74661 | 5469 ft | 266 kts | 213° |
| 2026-05-07 16:03 | 48.94962 | 9.73215 | 5207 ft | 264 kts | 213° |
| 2026-05-07 16:04 | 48.93391 | 9.71773 | 4953 ft | 263 kts | 213° |
| 2026-05-07 16:04 | 48.91823 | 9.70329 | 4698 ft | 264 kts | 214° |
| 2026-05-07 16:04 | 48.90252 | 9.68887 | 4428 ft | 263 kts | 213° |
| 2026-05-07 16:04 | 48.88689 | 9.67450 | 4171 ft | 263 kts | 213° |
| 2026-05-07 16:05 | 48.87122 | 9.66016 | 4034 ft | 262 kts | 213° |
| 2026-05-07 16:05 | 48.85557 | 9.64583 | 4012 ft | 264 kts | 213° |
| 2026-05-07 16:05 | 48.83986 | 9.63145 | 4006 ft | 264 kts | 213° |
| 2026-05-07 16:05 | 48.82411 | 9.61706 | 4011 ft | 264 kts | 213° |
| 2026-05-07 16:06 | 48.80838 | 9.60279 | 4007 ft | 263 kts | 213° |
| 2026-05-07 16:06 | 48.79262 | 9.58843 | 4014 ft | 263 kts | 213° |
| 2026-05-07 16:06 | 48.77689 | 9.57410 | 4011 ft | 264 kts | 213° |
| 2026-05-07 16:06 | 48.76177 | 9.55861 | 4018 ft | 263 kts | 225° |
| 2026-05-07 16:07 | 48.75126 | 9.53709 | 4012 ft | 243 kts | 246° |
| 2026-05-07 16:07 | 48.74531 | 9.51452 | 4014 ft | 220 kts | 254° |
| 2026-05-07 16:07 | 48.74114 | 9.49321 | 4017 ft | 202 kts | 257° |
| 2026-05-07 16:07 | 48.73748 | 9.47363 | 4023 ft | 186 kts | 257° |
| 2026-05-07 16:08 | 48.73405 | 9.45557 | 4019 ft | 168 kts | 257° |
| 2026-05-07 16:08 | 48.73099 | 9.43945 | 3873 ft | 154 kts | 257° |
| 2026-05-07 16:08 | 48.72805 | 9.42358 | 3659 ft | 159 kts | 258° |
| 2026-05-07 16:08 | 48.72505 | 9.40799 | 3469 ft | 151 kts | 257° |
| 2026-05-07 16:09 | 48.72210 | 9.39241 | 3275 ft | 153 kts | 257° |
| 2026-05-07 16:09 | 48.71931 | 9.37763 | 3058 ft | 139 kts | 258° |
| 2026-05-07 16:09 | 48.71668 | 9.36356 | 2883 ft | 146 kts | 258° |
| 2026-05-07 16:09 | 48.71391 | 9.34912 | 2695 ft | 139 kts | 258° |
| 2026-05-07 16:10 | 48.71122 | 9.33479 | 2499 ft | 140 kts | 258° |
| 2026-05-07 16:10 | 48.70855 | 9.32062 | 2310 ft | 144 kts | 258° |
| 2026-05-07 16:10 | 48.70582 | 9.30619 | 2091 ft | 138 kts | 257° |
| 2026-05-07 16:10 | 48.70310 | 9.29181 | 1890 ft | 146 kts | 258° |
| 2026-05-07 16:11 | 48.70035 | 9.27729 | 1674 ft | 144 kts | 257° |
| 2026-05-07 16:11 | 48.69762 | 9.26271 | 1483 ft | 149 kts | 258° |
| 2026-05-07 16:11 | 48.69474 | 9.24765 | 1283 ft | 145 kts | 257° |
| 2026-05-07 16:11 | 48.69206 | 9.23302 | 1223 ft | 132 kts | 254° |
| 2026-05-07 16:12 | 48.69005 | 9.22275 | 1249 ft | 68 kts | 253° |
| 2026-05-07 16:12 | 48.68940 | 9.21817 | 1252 ft | 29 kts | 270° |
| 2026-05-07 16:12 | 48.68965 | 9.21596 | 1264 ft | 9 kts | 284° |
| 2026-05-07 16:12 | 48.68968 | 9.21575 | 1264 ft | 3 kts | 285° |
| 2026-05-07 16:13 | 48.68977 | 9.21518 | 1262 ft | 2 kts | 283° |
| 2026-05-07 16:13 | 48.68977 | 9.21516 | 1262 ft | 2 kts | 283° |
| 2026-05-07 16:13 | 48.68996 | 9.21376 | 1268 ft | 23 kts | 271° |
| 2026-05-07 16:14 | 48.68966 | 9.21135 | 1269 ft | 24 kts | 257° |
| 2026-05-07 16:14 | 48.68921 | 9.20913 | 1276 ft | 21 kts | 248° |
| 2026-05-07 16:14 | 48.68913 | 9.20715 | 1279 ft | 18 kts | 298° |
| 2026-05-07 16:14 | 48.68992 | 9.20577 | 1279 ft | 16 kts | 312° |
| 2026-05-07 16:15 | 48.69053 | 9.20457 | 1288 ft | 13 kts | 293° |
| 2026-05-07 16:15 | 48.69047 | 9.20345 | 1289 ft | 10 kts | 253° |
| 2026-05-07 16:15 | 48.69027 | 9.20247 | 1292 ft | 11 kts | 253° |
| 2026-05-07 16:15 | 48.69027 | 9.20143 | 1296 ft | 7 kts | 304° |
| 2026-05-07 16:16 | 48.69060 | 9.20121 | 1299 ft | 5 kts | 336° |
| 2026-05-07 16:16 | 48.69084 | 9.20109 | 1301 ft | 2 kts | 342° |
| 2026-05-07 16:16 | 48.69096 | 9.20104 | 1301 ft | 0 kts | 343° |
| 2026-05-07 16:16 | 48.69099 | 9.20102 | 1301 ft | 0 kts | 343° |